KFUL/FUL METAR and TAF weather

Enter ICAO airport designator
Station Type Date Time Source
KFUL METAR 2020/02/27 12:53 UTC NOAA

KFUL 271253Z AUTO 00000KT 10SM CLR 12/00 A3013 RMK AO2 SLP203 T01170000


Station Type Date Time Source
KFUL Decoded METAR 2020/02/27 12:53 UTC NOAA

FULLERTON MUNICIPAL AIRPORT , CA, United States (KFUL) 33-52N 117-59W 35M
Feb 27, 2020 - 07:53 AM EST / 2020.02.27 1253 UTC
Wind: Calm:0
Visibility: 10 mile(s):0
Sky conditions: clear
Temperature: 53.1 F (11.7 C)
Dew Point: 32.0 F (0.0 C)
Relative Humidity: 44%
Pressure (altimeter): 30.13 in. Hg (1020 hPa)
ob: KFUL 271253Z AUTO 00000KT 10SM CLR 12/00 A3013 RMK AO2 SLP203 T01170000
cycle: 13

Station Type Date Time Source
KFUL TAF UTC NOAA

Error!

Example: see airport list